createdAt,value
2019-01-27T00:00:29.373Z,73.57
2019-01-27T00:02:59.383Z,65.67
2019-01-27T00:05:29.195Z,63.53
2019-01-27T00:07:59.040Z,62.13
2019-01-27T00:10:28.965Z,64.70
2019-01-27T00:12:58.784Z,60.67
2019-01-27T00:15:28.604Z,63.23
2019-01-27T00:17:58.455Z,60.70
2019-01-27T00:20:28.989Z,56.87
2019-01-27T00:22:58.841Z,57.23
2019-01-27T00:25:28.729Z,56.30
2019-01-27T00:27:58.533Z,57.37
2019-01-27T00:30:28.597Z,52.10
2019-01-27T00:32:58.479Z,52.57
2019-01-27T00:35:28.411Z,58.43
2019-01-27T00:37:58.279Z,52.13
2019-01-27T00:40:28.340Z,51.00
2019-01-27T00:42:58.312Z,52.87
2019-01-27T00:45:28.129Z,48.47
2019-01-27T00:47:57.982Z,53.30
2019-01-27T00:50:27.885Z,47.90
2019-01-27T00:52:57.732Z,49.27
2019-01-27T00:55:27.541Z,49.17
2019-01-27T00:57:57.417Z,50.97
2019-01-27T01:00:27.565Z,48.83
2019-01-27T01:02:57.494Z,47.93
2019-01-27T01:05:27.389Z,45.50
2019-01-27T01:07:57.211Z,47.77
2019-01-27T01:10:27.184Z,43.37
2019-01-27T01:12:57.365Z,45.43
2019-01-27T01:15:27.169Z,43.90
2019-01-27T01:17:57.073Z,46.93
2019-01-27T01:20:26.912Z,45.70
2019-01-27T01:22:56.950Z,45.40
2019-01-27T01:25:27.499Z,44.37
2019-01-27T01:27:57.354Z,43.50
2019-01-27T01:30:28.855Z,43.00
2019-01-27T01:32:58.878Z,45.07
2019-01-27T01:35:28.807Z,40.47
2019-01-27T01:37:58.605Z,41.20
2019-01-27T01:40:28.516Z,41.70
2019-01-27T01:42:58.348Z,39.17
2019-01-27T01:45:30.599Z,43.30
2019-01-27T01:48:00.593Z,42.50
2019-01-27T01:50:30.509Z,43.87
2019-01-27T01:53:00.308Z,45.07
2019-01-27T01:55:30.232Z,43.47
2019-01-27T01:58:00.029Z,39.97
2019-01-27T02:00:30.121Z,43.37
2019-01-27T02:03:00.076Z,47.30
2019-01-27T02:05:29.992Z,42.07
2019-01-27T02:08:00.307Z,39.87
2019-01-27T02:10:30.395Z,44.33
2019-01-27T02:13:00.324Z,42.53
2019-01-27T02:16:08.228Z,42.87
2019-01-27T02:18:39.259Z,46.70
2019-01-27T02:21:09.716Z,39.20
2019-01-27T02:23:40.031Z,42.97
2019-01-27T02:26:10.609Z,40.60
2019-01-27T02:28:40.554Z,41.20
2019-01-27T02:31:10.397Z,42.67
2019-01-27T02:33:40.291Z,41.17
2019-01-27T02:36:10.121Z,44.90
2019-01-27T02:38:39.945Z,39.03
2019-01-27T02:41:09.873Z,40.67
2019-01-27T02:43:39.776Z,46.67
2019-01-27T02:46:09.685Z,44.47
2019-01-27T02:48:39.679Z,41.90
2019-01-27T02:51:09.525Z,40.47
2019-01-27T02:53:39.459Z,41.70
2019-01-27T02:56:09.343Z,41.13
2019-01-27T02:58:39.279Z,41.73
2019-01-27T03:01:09.134Z,44.83
2019-01-27T03:03:39.221Z,40.40
2019-01-27T03:06:46.302Z,41.17
2019-01-27T03:09:20.633Z,41.03
2019-01-27T03:11:51.705Z,42.53
2019-01-27T03:14:22.351Z,40.40
2019-01-27T03:16:53.738Z,38.80
2019-01-27T03:19:23.904Z,42.23
2019-01-27T03:21:53.828Z,41.57
2019-01-27T03:24:23.739Z,41.13
2019-01-27T03:26:53.650Z,43.70
2019-01-27T03:29:23.484Z,43.37
2019-01-27T03:31:53.472Z,40.87
2019-01-27T03:34:23.326Z,40.07
2019-01-27T03:36:53.145Z,39.47
2019-01-27T03:39:23.085Z,41.20
2019-01-27T03:41:53.044Z,40.23
2019-01-27T03:44:22.849Z,37.77
2019-01-27T03:46:52.781Z,42.23
2019-01-27T03:49:22.790Z,37.77
2019-01-27T03:51:52.590Z,41.80
2019-01-27T03:54:22.421Z,41.33
2019-01-27T03:56:52.424Z,39.27
2019-01-27T03:59:22.278Z,42.20
2019-01-27T04:01:52.132Z,39.93
2019-01-27T04:04:22.029Z,44.70
2019-01-27T04:06:51.866Z,45.73
2019-01-27T04:09:21.720Z,40.90
2019-01-27T04:11:51.609Z,43.33
2019-01-27T04:14:21.393Z,41.63
2019-01-27T04:16:51.220Z,41.60
2019-01-27T04:19:21.128Z,43.67
2019-01-27T04:21:50.961Z,41.63
2019-01-27T04:24:21.030Z,44.07
2019-01-27T04:26:51.064Z,42.03
2019-01-27T04:29:20.892Z,40.07
2019-01-27T04:31:50.687Z,46.07
2019-01-27T04:34:20.683Z,40.73
2019-01-27T04:36:50.546Z,41.27
2019-01-27T04:39:20.341Z,41.33
2019-01-27T04:41:50.218Z,41.33
2019-01-27T04:44:20.073Z,46.23
2019-01-27T04:46:49.915Z,42.20
2019-01-27T04:49:19.853Z,44.57
2019-01-27T04:51:49.777Z,43.10
2019-01-27T04:54:19.562Z,45.43
2019-01-27T04:56:49.420Z,45.57
2019-01-27T04:59:19.207Z,44.43
2019-01-27T05:01:49.097Z,40.03
2019-01-27T05:04:34.147Z,47.13
2019-01-27T05:07:03.989Z,43.40
2019-01-27T05:09:33.867Z,44.70
2019-01-27T05:12:04.957Z,42.87
2019-01-27T05:14:34.745Z,45.57
2019-01-27T05:17:04.792Z,47.57
2019-01-27T05:19:34.719Z,44.23
2019-01-27T05:22:04.620Z,45.63
2019-01-27T05:24:34.432Z,40.80
2019-01-27T05:27:04.304Z,47.30
2019-01-27T05:29:34.190Z,42.33
2019-01-27T05:32:04.101Z,42.53
2019-01-27T05:34:34.020Z,38.87
2019-01-27T05:37:03.840Z,42.83
2019-01-27T05:39:33.674Z,42.83
2019-01-27T05:42:03.546Z,43.03
2019-01-27T05:44:33.495Z,44.57
2019-01-27T05:47:03.297Z,41.50
2019-01-27T05:49:33.304Z,41.30
2019-01-27T05:52:03.105Z,44.27
2019-01-27T05:54:32.913Z,44.23
2019-01-27T05:57:02.830Z,40.03
2019-01-27T05:59:32.808Z,48.60
2019-01-27T06:02:02.685Z,45.93
2019-01-27T06:04:32.539Z,38.30
2019-01-27T06:07:02.469Z,41.10
2019-01-27T06:09:32.318Z,40.80
2019-01-27T06:12:02.156Z,44.77
2019-01-27T06:14:33.089Z,42.93
2019-01-27T06:17:02.952Z,42.80
2019-01-27T06:19:32.737Z,42.40
2019-01-27T06:22:02.623Z,42.13
2019-01-27T06:24:32.451Z,43.93
2019-01-27T06:27:02.282Z,42.50
2019-01-27T06:29:32.177Z,41.83
2019-01-27T06:32:02.106Z,42.83
2019-01-27T06:34:31.925Z,44.87
2019-01-27T06:37:01.869Z,43.40
2019-01-27T06:39:31.669Z,43.70
2019-01-27T06:42:01.656Z,45.57
2019-01-27T06:44:31.503Z,44.80
2019-01-27T06:47:01.324Z,44.80
2019-01-27T06:49:31.200Z,41.17
2019-01-27T06:52:01.037Z,42.73
2019-01-27T06:54:30.920Z,41.57
2019-01-27T06:57:00.709Z,45.17
2019-01-27T06:59:52.624Z,41.30
2019-01-27T07:02:36.244Z,42.67
2019-01-27T07:05:33.438Z,41.13
2019-01-27T07:08:31.299Z,45.57
2019-01-27T07:11:20.149Z,37.70
2019-01-27T07:14:21.136Z,41.43
2019-01-27T07:17:18.918Z,39.07
2019-01-27T07:20:13.617Z,39.30
2019-01-27T07:23:02.574Z,39.90
2019-01-27T07:25:42.031Z,43.90
2019-01-27T07:28:22.889Z,44.17
2019-01-27T07:31:11.112Z,44.43
2019-01-27T07:33:53.029Z,45.73
2019-01-27T07:36:44.513Z,43.80
2019-01-27T07:39:22.589Z,45.97
2019-01-27T07:42:17.237Z,42.83
2019-01-27T07:45:05.994Z,44.43
2019-01-27T07:47:44.672Z,43.00
2019-01-27T07:50:43.289Z,39.67
2019-01-27T07:53:43.896Z,46.90
2019-01-27T07:56:32.629Z,42.60
2019-01-27T07:59:21.309Z,41.23
2019-01-27T08:02:19.132Z,47.13
2019-01-27T08:05:07.963Z,44.47
2019-01-27T08:08:15.223Z,47.20
2019-01-27T08:11:04.602Z,47.40
2019-01-27T08:13:47.005Z,47.30
2019-01-27T08:16:25.114Z,49.70
2019-01-27T08:19:04.246Z,52.27
2019-01-27T08:21:51.709Z,45.23
2019-01-27T08:24:30.632Z,44.77
2019-01-27T08:27:22.428Z,49.47
2019-01-27T08:30:11.099Z,46.53
2019-01-27T08:32:58.575Z,46.80
2019-01-27T08:35:44.274Z,47.83
2019-01-27T08:38:34.848Z,46.47
2019-01-27T08:41:24.025Z,45.73
2019-01-27T08:44:04.131Z,53.37
2019-01-27T08:46:40.901Z,46.53
2019-01-27T08:49:10.776Z,53.13
2019-01-27T08:51:40.868Z,60.47
2019-01-27T08:54:10.672Z,66.53
2019-01-27T08:56:40.553Z,72.73
2019-01-27T08:59:10.458Z,73.47
2019-01-27T09:02:01.991Z,75.30
2019-01-27T09:04:37.361Z,78.60
2019-01-27T09:07:32.328Z,78.07
2019-01-27T09:10:29.347Z,75.00
2019-01-27T09:13:13.174Z,71.37
2019-01-27T09:15:53.965Z,70.43
2019-01-27T09:18:48.553Z,65.20
2019-01-27T09:21:30.872Z,64.80
2019-01-27T09:24:18.308Z,59.67
2019-01-27T09:27:07.009Z,64.13
2019-01-27T09:29:55.754Z,70.63
2019-01-27T09:32:31.462Z,82.37
2019-01-27T09:35:19.195Z,86.73
2019-01-27T09:38:10.780Z,83.77
2019-01-27T09:40:55.075Z,106.60
2019-01-27T09:43:43.758Z,124.87
2019-01-27T09:46:38.596Z,154.70
2019-01-27T09:49:27.288Z,180.73
2019-01-27T09:52:31.348Z,186.63
2019-01-27T09:55:23.209Z,197.07
2019-01-27T09:58:11.044Z,187.80
2019-01-27T10:00:57.017Z,184.43
2019-01-27T10:03:51.941Z,182.10
2019-01-27T10:06:44.053Z,165.50
2019-01-27T10:09:25.392Z,163.50
2019-01-27T10:12:07.013Z,154.67
2019-01-27T10:14:57.139Z,164.23
2019-01-27T10:17:50.003Z,163.67
2019-01-27T10:20:35.019Z,153.87
2019-01-27T10:23:14.838Z,145.73
2019-01-27T10:26:10.317Z,150.87
2019-01-27T10:29:01.819Z,144.77
2019-01-27T10:31:44.746Z,140.07
2019-01-27T10:34:39.304Z,135.37
2019-01-27T10:37:26.084Z,125.20
2019-01-27T10:40:14.272Z,128.90
2019-01-27T10:43:05.271Z,122.30
2019-01-27T10:45:44.023Z,122.97
2019-01-27T10:48:47.793Z,118.63
2019-01-27T10:51:30.505Z,120.37
2019-01-27T10:54:09.763Z,113.03
2019-01-27T10:56:58.590Z,108.43
2019-01-27T10:59:47.287Z,108.00
2019-01-27T11:02:37.213Z,109.83
2019-01-27T11:05:42.212Z,104.90
2019-01-27T11:08:29.923Z,107.07
2019-01-27T11:11:21.413Z,102.93
2019-01-27T11:14:02.096Z,97.00
2019-01-27T11:16:58.039Z,96.57
2019-01-27T11:19:46.834Z,96.27
2019-01-27T11:22:32.777Z,85.47
2019-01-27T11:25:24.548Z,86.53
2019-01-27T11:28:13.233Z,85.80
2019-01-27T11:30:58.550Z,87.27
2019-01-27T11:34:05.365Z,81.47
2019-01-27T11:36:52.802Z,83.43
2019-01-27T11:39:33.573Z,82.23
2019-01-27T11:42:25.268Z,77.97
2019-01-27T11:45:19.783Z,75.13
2019-01-27T11:48:08.648Z,75.60
2019-01-27T11:51:15.813Z,74.37
2019-01-27T11:53:45.743Z,74.20
2019-01-27T11:56:15.565Z,74.40
2019-01-27T11:58:45.489Z,66.53
2019-01-27T12:01:15.372Z,64.73
2019-01-27T12:03:45.278Z,71.87
2019-01-27T12:06:16.129Z,65.27
2019-01-27T12:08:45.973Z,67.27
2019-01-27T12:11:15.892Z,68.93
2019-01-27T12:13:45.729Z,63.70
2019-01-27T12:16:15.517Z,62.90
2019-01-27T12:18:45.461Z,61.10
2019-01-27T12:21:15.397Z,65.73
2019-01-27T12:23:45.402Z,69.53
2019-01-27T12:26:15.272Z,60.17
2019-01-27T12:28:45.061Z,67.63
2019-01-27T12:31:15.657Z,62.20
2019-01-27T12:33:46.084Z,62.00
2019-01-27T12:36:16.008Z,60.47
2019-01-27T12:38:45.856Z,61.40
2019-01-27T12:41:15.759Z,61.13
2019-01-27T12:43:46.542Z,59.37
2019-01-27T12:46:16.428Z,58.83
2019-01-27T12:48:46.263Z,72.20
2019-01-27T12:51:17.104Z,80.23
2019-01-27T12:53:47.053Z,92.30
2019-01-27T12:56:16.943Z,91.70
2019-01-27T12:58:46.775Z,91.50
2019-01-27T13:01:16.837Z,89.63
2019-01-27T13:03:46.852Z,82.77
2019-01-27T13:06:16.835Z,86.47
2019-01-27T13:08:47.064Z,77.73
2019-01-27T13:11:16.912Z,71.40
2019-01-27T13:13:46.786Z,73.00
2019-01-27T13:16:16.609Z,69.43
2019-01-27T13:18:46.571Z,69.87
2019-01-27T13:21:16.450Z,68.87
2019-01-27T13:23:46.284Z,61.20
2019-01-27T13:26:16.249Z,63.80
2019-01-27T13:28:46.069Z,62.67
2019-01-27T13:31:15.970Z,61.37
2019-01-27T13:33:47.031Z,61.90
2019-01-27T13:36:16.865Z,63.33
2019-01-27T13:38:51.001Z,58.50
2019-01-27T13:41:18.525Z,57.73
2019-01-27T13:43:48.416Z,57.33
2019-01-27T13:46:19.375Z,60.47
2019-01-27T13:48:49.317Z,74.57
2019-01-27T13:51:19.133Z,86.87
2019-01-27T13:53:49.081Z,82.30
2019-01-27T13:56:18.945Z,82.13
2019-01-27T13:58:48.809Z,81.90
2019-01-27T14:01:18.689Z,79.10
2019-01-27T14:03:48.553Z,77.20
2019-01-27T14:06:18.494Z,79.37
2019-01-27T14:08:49.804Z,73.33
2019-01-27T14:11:19.699Z,75.70
2019-01-27T14:13:49.587Z,65.70
2019-01-27T14:16:19.877Z,70.33
2019-01-27T14:18:50.297Z,62.33
2019-01-27T14:21:20.154Z,62.07
2019-01-27T14:23:50.035Z,64.17
2019-01-27T14:26:19.934Z,59.63
2019-01-27T14:28:49.870Z,62.33
2019-01-27T14:31:19.764Z,60.97
2019-01-27T14:33:49.756Z,61.37
2019-01-27T14:36:19.592Z,62.93
2019-01-27T14:38:49.573Z,59.37
2019-01-27T14:41:19.456Z,54.10
2019-01-27T14:43:49.448Z,59.63
2019-01-27T14:46:19.683Z,61.90
2019-01-27T14:48:49.644Z,65.07
2019-01-27T14:51:19.514Z,57.23
2019-01-27T14:53:49.440Z,55.67
2019-01-27T14:56:19.268Z,56.43
2019-01-27T14:58:49.235Z,56.27
2019-01-27T15:01:19.254Z,56.17
2019-01-27T15:03:49.060Z,56.63
2019-01-27T15:06:18.954Z,61.03
2019-01-27T15:08:48.899Z,56.50
2019-01-27T15:11:19.477Z,55.70
2019-01-27T15:13:49.313Z,56.70
2019-01-27T15:16:19.431Z,57.87
2019-01-27T15:18:49.439Z,54.30
2019-01-27T15:21:25.465Z,54.73
2019-01-27T15:23:55.461Z,57.33
2019-01-27T15:26:25.325Z,55.43
2019-01-27T15:28:55.247Z,50.97
2019-01-27T15:31:25.092Z,57.80
2019-01-27T15:33:54.984Z,54.90
2019-01-27T15:36:24.906Z,49.80
2019-01-27T15:38:54.818Z,51.33
2019-01-27T15:41:24.735Z,54.57
2019-01-27T15:43:54.603Z,53.17
2019-01-27T15:46:24.436Z,57.43
2019-01-27T15:48:54.407Z,55.60
2019-01-27T15:51:24.325Z,49.97
2019-01-27T15:53:54.188Z,49.60
2019-01-27T15:56:24.091Z,54.77
2019-01-27T15:58:54.006Z,52.77
2019-01-27T16:01:23.921Z,53.07
2019-01-27T16:03:53.768Z,55.63
2019-01-27T16:06:23.608Z,58.00
2019-01-27T16:08:53.564Z,55.07
2019-01-27T16:11:23.354Z,54.17
2019-01-27T16:13:53.200Z,55.40
2019-01-27T16:16:23.078Z,50.80
2019-01-27T16:18:58.818Z,51.63
2019-01-27T16:21:24.637Z,53.43
2019-01-27T16:23:57.595Z,50.73
2019-01-27T16:26:27.665Z,52.60
2019-01-27T16:28:57.469Z,54.00
2019-01-27T16:31:52.015Z,54.17
2019-01-27T16:34:49.849Z,53.67
2019-01-27T16:37:19.792Z,52.00
2019-01-27T16:39:49.651Z,51.87
2019-01-27T16:42:19.538Z,48.60
2019-01-27T16:44:49.403Z,50.37
2019-01-27T16:47:19.243Z,50.07
2019-01-27T16:49:49.161Z,52.23
2019-01-27T16:52:19.031Z,55.67
2019-01-27T16:54:48.865Z,52.00
2019-01-27T16:57:18.830Z,53.47
2019-01-27T16:59:48.712Z,51.47
2019-01-27T17:02:18.628Z,53.57
2019-01-27T17:04:48.504Z,48.73
2019-01-27T17:07:18.545Z,47.47
2019-01-27T17:09:48.440Z,48.63
2019-01-27T17:12:18.337Z,52.37
2019-01-27T17:14:48.161Z,50.30
2019-01-27T17:17:17.989Z,52.57
2019-01-27T17:19:48.010Z,52.33
2019-01-27T17:22:17.940Z,48.07
2019-01-27T17:24:47.745Z,52.93
2019-01-27T17:27:17.578Z,56.90
2019-01-27T17:29:47.501Z,56.37
2019-01-27T17:32:17.471Z,51.20
2019-01-27T17:34:47.361Z,56.20
2019-01-27T17:37:18.334Z,50.67
2019-01-27T17:39:48.263Z,51.37
2019-01-27T17:42:18.168Z,48.50
2019-01-27T17:44:48.090Z,49.80
2019-01-27T17:47:17.896Z,49.60
2019-01-27T17:49:47.855Z,51.57
2019-01-27T17:52:17.666Z,49.93
2019-01-27T17:54:47.637Z,52.33
2019-01-27T17:57:42.664Z,54.07
2019-01-27T18:00:43.816Z,50.57
2019-01-27T18:03:35.416Z,51.10
2019-01-27T18:06:20.691Z,53.20
2019-01-27T18:09:11.137Z,49.47
2019-01-27T18:12:02.648Z,55.13
2019-01-27T18:14:35.888Z,55.50
2019-01-27T18:17:05.849Z,54.70
2019-01-27T18:19:35.746Z,47.07
2019-01-27T18:22:05.836Z,54.60
2019-01-27T18:24:35.638Z,51.77
2019-01-27T18:27:05.654Z,54.20
2019-01-27T18:29:35.579Z,49.70
2019-01-27T18:32:05.666Z,51.40
2019-01-27T18:34:35.489Z,55.70
2019-01-27T18:37:05.862Z,53.03
2019-01-27T18:39:35.727Z,50.70
2019-01-27T18:42:05.866Z,48.50
2019-01-27T18:44:35.874Z,52.67
2019-01-27T18:47:05.795Z,53.13
2019-01-27T18:49:35.603Z,60.00
2019-01-27T18:52:05.653Z,57.23
2019-01-27T18:54:57.504Z,54.87
2019-01-27T18:57:49.129Z,59.60
2019-01-27T19:00:49.854Z,62.47
2019-01-27T19:03:38.708Z,66.83
2019-01-27T19:06:39.885Z,62.83
2019-01-27T19:09:30.463Z,62.20
2019-01-27T19:12:18.028Z,63.03
2019-01-27T19:15:05.524Z,63.40
2019-01-27T19:18:01.873Z,60.03
2019-01-27T19:20:40.262Z,65.37
2019-01-27T19:23:41.418Z,61.13
2019-01-27T19:26:23.753Z,62.57
2019-01-27T19:29:18.632Z,70.03
2019-01-27T19:32:10.253Z,65.13
2019-01-27T19:34:57.777Z,65.13
2019-01-27T19:37:38.615Z,75.60
2019-01-27T19:40:30.966Z,86.47
2019-01-27T19:43:18.644Z,88.27
2019-01-27T19:45:57.345Z,78.17
2019-01-27T19:48:34.229Z,83.27
2019-01-27T19:51:22.947Z,82.83
2019-01-27T19:54:11.822Z,78.63
2019-01-27T19:57:19.307Z,80.43
2019-01-27T20:00:13.834Z,68.53
2019-01-27T20:02:56.250Z,72.40
2019-01-27T20:05:50.819Z,68.43
2019-01-27T20:08:39.650Z,68.23
2019-01-27T20:11:27.273Z,63.50
2019-01-27T20:14:22.113Z,68.67
2019-01-27T20:17:10.634Z,59.93
2019-01-27T20:20:09.406Z,59.33
2019-01-27T20:23:01.274Z,63.07
2019-01-27T20:25:40.440Z,59.67
2019-01-27T20:28:32.878Z,61.00
2019-01-27T20:31:19.571Z,59.03
2019-01-27T20:34:08.952Z,55.63
2019-01-27T20:37:04.542Z,58.40
2019-01-27T20:39:44.007Z,61.23
2019-01-27T20:42:31.941Z,65.43
2019-01-27T20:45:07.608Z,61.67
2019-01-27T20:47:53.129Z,63.17
2019-01-27T20:50:45.195Z,54.63
2019-01-27T20:53:37.321Z,63.00
2019-01-27T20:56:36.123Z,55.37
2019-01-27T20:59:25.604Z,58.13
2019-01-27T21:02:30.527Z,59.60
2019-01-27T21:05:29.358Z,54.70
2019-01-27T21:08:10.926Z,55.87
2019-01-27T21:11:05.818Z,62.73
2019-01-27T21:13:55.098Z,69.97
2019-01-27T21:16:43.147Z,87.87
2019-01-27T21:19:27.369Z,89.20
2019-01-27T21:21:57.464Z,93.60
2019-01-27T21:24:27.437Z,86.20
2019-01-27T21:26:57.278Z,88.00
2019-01-27T21:29:27.218Z,80.17
2019-01-27T21:31:57.028Z,83.63
2019-01-27T21:34:26.853Z,78.87
2019-01-27T21:36:56.765Z,77.27
2019-01-27T21:39:27.983Z,73.83
2019-01-27T21:41:58.069Z,76.37
2019-01-27T21:44:28.015Z,69.50
2019-01-27T21:46:57.869Z,70.07
2019-01-27T21:49:28.836Z,64.80
2019-01-27T21:51:58.854Z,70.53
2019-01-27T21:54:28.661Z,67.70
2019-01-27T21:56:58.620Z,71.33
2019-01-27T21:59:28.490Z,72.90
2019-01-27T22:01:58.373Z,69.27
2019-01-27T22:04:28.309Z,65.73
2019-01-27T22:06:58.288Z,69.27
2019-01-27T22:09:28.150Z,66.43
2019-01-27T22:11:58.162Z,68.40
2019-01-27T22:14:28.030Z,64.90
2019-01-27T22:16:57.848Z,68.07
2019-01-27T22:19:27.705Z,64.77
2019-01-27T22:21:57.522Z,66.67
2019-01-27T22:24:27.441Z,67.57
2019-01-27T22:26:57.226Z,70.83
2019-01-27T22:29:27.055Z,66.47
2019-01-27T22:31:56.980Z,65.07
2019-01-27T22:34:26.825Z,71.07
2019-01-27T22:36:56.756Z,64.07
2019-01-27T22:39:26.764Z,69.37
2019-01-27T22:41:56.548Z,65.80
2019-01-27T22:44:26.412Z,63.40
2019-01-27T22:46:56.284Z,64.87
2019-01-27T22:49:26.165Z,63.80
2019-01-27T22:51:56.081Z,65.10
2019-01-27T22:54:25.904Z,69.60
2019-01-27T22:56:55.798Z,67.33
2019-01-27T22:59:25.675Z,64.17
2019-01-27T23:01:55.462Z,65.60
2019-01-27T23:04:25.340Z,63.33
2019-01-27T23:06:55.153Z,65.00
2019-01-27T23:09:24.979Z,66.00
2019-01-27T23:11:54.843Z,68.63
2019-01-27T23:14:24.641Z,67.27
2019-01-27T23:16:54.473Z,69.37
2019-01-27T23:19:24.362Z,66.73
2019-01-27T23:21:54.189Z,69.93
2019-01-27T23:24:24.104Z,61.50
2019-01-27T23:26:53.947Z,63.87
2019-01-27T23:29:23.752Z,63.10
2019-01-27T23:31:53.644Z,65.00
2019-01-27T23:34:23.472Z,64.13
2019-01-27T23:36:53.333Z,65.13
2019-01-27T23:39:23.221Z,61.50
2019-01-27T23:41:53.085Z,60.13
2019-01-27T23:44:22.922Z,63.00
2019-01-27T23:46:52.809Z,66.40
2019-01-27T23:49:22.690Z,66.07
2019-01-27T23:51:52.500Z,64.80
2019-01-27T23:54:22.379Z,67.87
2019-01-27T23:56:52.191Z,65.10
2019-01-27T23:59:22.285Z,64.20
